createdAt,value
2017-08-11T00:01:48.106Z,34.57
2017-08-11T00:04:15.676Z,36.17
2017-08-11T00:06:43.278Z,38.00
2017-08-11T00:09:10.973Z,43.77
2017-08-11T00:11:38.586Z,46.87
2017-08-11T00:14:06.272Z,44.47
2017-08-11T00:16:34.091Z,49.30
2017-08-11T00:19:02.032Z,48.23
2017-08-11T00:21:29.627Z,45.53
2017-08-11T00:23:57.410Z,45.50
2017-08-11T00:26:24.996Z,44.87
2017-08-11T00:28:52.578Z,43.87
2017-08-11T00:31:20.286Z,45.50
2017-08-11T00:33:48.025Z,44.13
2017-08-11T00:36:15.717Z,46.60
2017-08-11T00:38:43.330Z,40.83
2017-08-11T00:41:10.916Z,39.50
2017-08-11T00:43:38.488Z,34.03
2017-08-11T00:46:06.249Z,34.80
2017-08-11T00:48:33.948Z,25.47
2017-08-11T00:51:01.582Z,24.20
2017-08-11T00:53:29.199Z,23.03
2017-08-11T00:55:56.784Z,21.23
2017-08-11T00:58:24.432Z,21.40
2017-08-11T01:00:52.056Z,19.83
2017-08-11T01:03:19.941Z,19.67
2017-08-11T01:05:48.476Z,17.97
2017-08-11T01:08:16.344Z,20.87
2017-08-11T01:10:43.951Z,19.20
2017-08-11T01:13:12.314Z,17.10
2017-08-11T01:15:39.992Z,19.87
2017-08-11T01:18:08.385Z,18.50
2017-08-11T01:20:36.744Z,19.80
2017-08-11T01:23:04.466Z,18.67
2017-08-11T01:25:32.108Z,18.13
2017-08-11T01:27:59.851Z,18.90
2017-08-11T01:30:27.491Z,20.23
2017-08-11T01:32:55.103Z,19.13
2017-08-11T01:35:22.746Z,18.37
2017-08-11T01:37:50.388Z,18.00
2017-08-11T01:40:18.754Z,20.10
2017-08-11T01:42:46.386Z,17.60
2017-08-11T01:45:14.420Z,19.93
2017-08-11T01:47:42.062Z,19.77
2017-08-11T01:50:10.429Z,22.00
2017-08-11T01:52:38.193Z,21.93
2017-08-11T01:55:05.807Z,20.63
2017-08-11T01:57:33.431Z,23.30
2017-08-11T02:00:01.871Z,24.03
2017-08-11T02:02:29.501Z,21.53
2017-08-11T02:04:57.108Z,21.33
2017-08-11T02:07:24.744Z,20.93
2017-08-11T02:09:52.400Z,21.67
2017-08-11T02:12:20.018Z,22.60
2017-08-11T02:14:47.647Z,20.57
2017-08-11T02:17:15.311Z,21.87
2017-08-11T02:19:42.961Z,22.90
2017-08-11T02:22:10.923Z,22.73
2017-08-11T02:24:38.539Z,23.23
2017-08-11T02:27:06.127Z,21.97
2017-08-11T02:29:33.792Z,23.20
2017-08-11T02:32:01.388Z,23.80
2017-08-11T02:34:29.042Z,23.07
2017-08-11T02:36:56.679Z,24.20
2017-08-11T02:39:24.279Z,22.97
2017-08-11T02:41:51.943Z,22.43
2017-08-11T02:44:19.766Z,24.07
2017-08-11T02:46:47.383Z,23.00
2017-08-11T02:49:15.084Z,22.50
2017-08-11T02:51:42.730Z,22.30
2017-08-11T02:54:10.310Z,23.77
2017-08-11T02:56:37.974Z,24.13
2017-08-11T02:59:05.637Z,23.80
2017-08-11T03:01:33.245Z,24.97
2017-08-11T03:04:01.615Z,24.50
2017-08-11T03:06:29.443Z,24.50
2017-08-11T03:08:57.069Z,25.37
2017-08-11T03:11:24.666Z,26.30
2017-08-11T03:13:52.811Z,27.20
2017-08-11T03:16:20.525Z,25.83
2017-08-11T03:18:48.100Z,27.27
2017-08-11T03:21:15.752Z,28.80
2017-08-11T03:23:43.539Z,28.67
2017-08-11T03:26:11.124Z,29.03
2017-08-11T03:28:38.893Z,29.00
2017-08-11T03:31:06.543Z,28.60
2017-08-11T03:33:34.134Z,29.23
2017-08-11T03:36:01.759Z,28.03
2017-08-11T03:38:29.358Z,29.37
2017-08-11T03:40:57.019Z,28.47
2017-08-11T03:43:24.662Z,29.57
2017-08-11T03:45:52.274Z,29.03
2017-08-11T03:48:19.932Z,29.97
2017-08-11T03:50:47.555Z,31.87
2017-08-11T03:53:15.224Z,32.80
2017-08-11T03:55:42.996Z,30.37
2017-08-11T03:58:10.686Z,32.87
2017-08-11T04:00:38.313Z,32.37
2017-08-11T04:03:05.894Z,32.17
2017-08-11T04:05:33.656Z,30.73
2017-08-11T04:08:01.236Z,30.80
2017-08-11T04:10:29.680Z,30.50
2017-08-11T04:12:57.747Z,30.50
2017-08-11T04:15:25.347Z,33.70
2017-08-11T04:17:52.976Z,30.17
2017-08-11T04:20:20.987Z,30.67
2017-08-11T04:22:49.412Z,30.53
2017-08-11T04:25:17.011Z,30.33
2017-08-11T04:27:44.664Z,31.83
2017-08-11T04:30:12.310Z,30.10
2017-08-11T04:32:39.977Z,30.00
2017-08-11T04:35:07.593Z,29.13
2017-08-11T04:37:35.183Z,31.33
2017-08-11T04:40:02.834Z,30.97
2017-08-11T04:42:30.512Z,29.50
2017-08-11T04:44:58.114Z,28.90
2017-08-11T04:47:25.762Z,29.33
2017-08-11T04:49:53.414Z,29.80
2017-08-11T04:52:20.989Z,29.57
2017-08-11T04:54:48.576Z,29.40
2017-08-11T04:57:16.632Z,27.53
2017-08-11T04:59:44.265Z,28.13
2017-08-11T05:02:15.541Z,26.80
2017-08-11T05:04:43.163Z,29.20
2017-08-11T05:07:10.796Z,27.00
2017-08-11T05:09:38.646Z,26.20
2017-08-11T05:12:06.221Z,26.97
2017-08-11T05:14:33.807Z,28.70
2017-08-11T05:17:01.509Z,25.67
2017-08-11T05:19:29.090Z,26.87
2017-08-11T05:21:56.732Z,24.67
2017-08-11T05:24:25.237Z,24.50
2017-08-11T05:26:53.617Z,22.93
2017-08-11T05:29:21.227Z,24.97
2017-08-11T05:31:48.862Z,24.00
2017-08-11T05:34:16.540Z,22.60
2017-08-11T05:36:44.118Z,22.07
2017-08-11T05:39:11.743Z,23.30
2017-08-11T05:41:39.447Z,23.37
2017-08-11T05:44:07.086Z,21.07
2017-08-11T05:46:34.710Z,23.77
2017-08-11T05:49:02.706Z,22.47
2017-08-11T05:51:30.335Z,23.20
2017-08-11T05:53:58.006Z,23.50
2017-08-11T05:56:25.665Z,23.70
2017-08-11T05:58:53.302Z,23.13
2017-08-11T06:01:20.939Z,22.70
2017-08-11T06:03:48.547Z,21.40
2017-08-11T06:06:16.187Z,21.60
2017-08-11T06:08:43.797Z,20.23
2017-08-11T06:11:11.393Z,20.63
2017-08-11T06:13:39.070Z,22.73
2017-08-11T06:16:06.727Z,21.30
2017-08-11T06:18:34.315Z,21.00
2017-08-11T06:21:02.323Z,19.97
2017-08-11T06:23:30.001Z,21.87
2017-08-11T06:25:57.669Z,20.93
2017-08-11T06:28:25.257Z,21.07
2017-08-11T06:30:54.093Z,21.80
2017-08-11T06:33:22.617Z,22.20
2017-08-11T06:35:50.637Z,22.30
2017-08-11T06:38:18.888Z,24.23
2017-08-11T06:40:46.531Z,22.43
2017-08-11T06:43:14.415Z,23.03
2017-08-11T06:45:44.729Z,23.10
2017-08-11T06:48:12.372Z,22.97
2017-08-11T06:50:40.356Z,24.57
2017-08-11T06:53:08.008Z,25.73
2017-08-11T06:55:35.694Z,26.10
2017-08-11T06:58:03.265Z,26.83
2017-08-11T07:00:31.004Z,27.07
2017-08-11T07:02:58.697Z,25.57
2017-08-11T07:05:26.277Z,24.50
2017-08-11T07:07:53.915Z,23.50
2017-08-11T07:10:21.910Z,24.33
2017-08-11T07:12:49.527Z,20.20
2017-08-11T07:15:17.910Z,17.03
2017-08-11T07:20:19.504Z,14.40
2017-08-11T07:22:47.115Z,14.83
2017-08-11T07:25:14.719Z,16.40
2017-08-11T07:27:42.457Z,16.23
2017-08-11T07:30:10.806Z,17.47
2017-08-11T07:32:38.395Z,16.90
2017-08-11T07:35:06.940Z,16.50
2017-08-11T07:37:34.601Z,13.70
2017-08-11T07:40:03.137Z,14.60
2017-08-11T07:42:30.775Z,13.23
2017-08-11T07:44:58.436Z,13.10
2017-08-11T07:47:26.103Z,12.00
2017-08-11T07:49:54.519Z,12.10
2017-08-11T07:52:22.119Z,12.50
2017-08-11T07:54:49.781Z,12.13
2017-08-11T07:57:18.335Z,11.60
2017-08-11T07:59:45.934Z,12.20
2017-08-11T08:02:13.531Z,12.00
2017-08-11T08:04:41.242Z,11.33
2017-08-11T08:07:08.825Z,11.57
2017-08-11T08:09:37.177Z,12.20
2017-08-11T08:12:04.807Z,12.97
2017-08-11T08:14:32.530Z,10.50
2017-08-11T08:17:00.894Z,11.40
2017-08-11T08:19:28.588Z,12.37
2017-08-11T08:21:56.178Z,11.50
2017-08-11T08:24:23.752Z,10.03
2017-08-11T08:26:51.357Z,10.80
2017-08-11T08:29:19.755Z,9.90
2017-08-11T08:31:47.361Z,9.47
2017-08-11T08:34:14.974Z,9.80
2017-08-11T08:36:42.835Z,9.50
2017-08-11T08:39:10.494Z,9.60
2017-08-11T08:41:38.874Z,9.23
2017-08-11T08:44:06.529Z,9.03
2017-08-11T08:46:34.913Z,9.50
2017-08-11T08:49:02.637Z,7.67
2017-08-11T08:51:30.298Z,8.83
2017-08-11T08:53:57.870Z,7.87
2017-08-11T08:56:25.502Z,7.30
2017-08-11T08:58:53.089Z,7.13
2017-08-11T09:01:20.679Z,7.00
2017-08-11T09:03:49.102Z,7.27
2017-08-11T09:06:16.688Z,8.07
2017-08-11T09:08:44.268Z,6.87
2017-08-11T09:11:12.644Z,7.10
2017-08-11T09:13:41.051Z,6.13
2017-08-11T09:16:08.620Z,5.90
2017-08-11T09:18:36.260Z,6.63
2017-08-11T09:21:04.619Z,6.57
2017-08-11T09:23:33.041Z,5.90
2017-08-11T09:26:12.526Z,5.50
2017-08-11T09:28:51.959Z,5.60
2017-08-11T09:31:31.626Z,5.40
2017-08-11T09:34:11.959Z,5.47
2017-08-11T09:36:40.890Z,5.27
2017-08-11T09:39:08.686Z,4.40
2017-08-11T09:41:36.257Z,4.50
2017-08-11T09:44:03.876Z,5.10
2017-08-11T09:46:31.784Z,5.63
2017-08-11T09:48:59.544Z,5.20
2017-08-11T09:51:27.171Z,5.77
2017-08-11T09:53:54.853Z,5.33
2017-08-11T09:56:22.485Z,5.77
2017-08-11T09:58:51.096Z,6.90
2017-08-11T10:01:18.681Z,6.40
2017-08-11T10:03:46.472Z,6.70
2017-08-11T10:06:14.211Z,4.70
2017-08-11T10:08:41.808Z,5.10
2017-08-11T10:11:10.177Z,4.57
2017-08-11T10:13:37.894Z,5.10
2017-08-11T10:16:05.481Z,5.37
2017-08-11T10:18:33.045Z,4.13
2017-08-11T10:21:00.746Z,3.67
2017-08-11T10:23:29.152Z,3.10
2017-08-11T10:25:56.744Z,3.87
2017-08-11T10:28:24.358Z,4.00
2017-08-11T10:30:51.994Z,6.90
2017-08-11T10:33:20.347Z,4.90
2017-08-11T10:35:47.960Z,5.40
2017-08-11T10:38:15.598Z,5.83
2017-08-11T10:40:43.996Z,6.20
2017-08-11T10:43:11.616Z,6.43
2017-08-11T10:45:39.206Z,5.90
2017-08-11T10:48:07.631Z,5.43
2017-08-11T10:50:35.243Z,4.83
2017-08-11T10:53:03.582Z,9.93
2017-08-11T10:55:31.220Z,7.60
2017-08-11T10:57:58.921Z,7.40
2017-08-11T11:00:26.511Z,6.70
2017-08-11T11:02:54.225Z,5.70
2017-08-11T11:05:21.851Z,6.67
2017-08-11T11:07:49.448Z,6.47
2017-08-11T11:10:17.020Z,8.13
2017-08-11T11:12:44.737Z,7.60
2017-08-11T11:15:12.903Z,6.70
2017-08-11T11:17:41.707Z,6.40
2017-08-11T11:20:09.954Z,5.40
2017-08-11T11:22:37.803Z,4.57
2017-08-11T11:25:05.760Z,5.80
2017-08-11T11:27:33.393Z,5.43
2017-08-11T11:30:00.973Z,5.00
2017-08-11T11:32:28.621Z,5.30
2017-08-11T11:34:56.380Z,4.80
2017-08-11T11:37:24.026Z,4.87
2017-08-11T11:39:51.655Z,4.50
2017-08-11T11:42:20.147Z,4.37
2017-08-11T11:44:47.731Z,5.00
2017-08-11T11:47:15.313Z,4.77
2017-08-11T11:49:43.086Z,5.60
2017-08-11T11:52:10.761Z,5.00
2017-08-11T11:54:38.367Z,5.00
2017-08-11T11:57:06.028Z,4.60
2017-08-11T11:59:33.602Z,4.80
2017-08-11T12:02:01.197Z,5.13
2017-08-11T12:04:29.002Z,5.00
2017-08-11T12:06:56.679Z,5.30
2017-08-11T12:09:24.327Z,4.87
2017-08-11T12:11:52.081Z,4.23
2017-08-11T12:14:20.536Z,5.00
2017-08-11T12:16:48.147Z,4.20
2017-08-11T12:19:15.809Z,4.90
2017-08-11T12:21:43.524Z,5.00
2017-08-11T12:24:11.246Z,5.00
2017-08-11T12:26:38.970Z,5.33
2017-08-11T12:29:06.600Z,4.90
2017-08-11T12:31:34.286Z,4.90
2017-08-11T12:34:02.991Z,5.20
2017-08-11T12:36:31.215Z,5.67
2017-08-11T12:38:58.875Z,5.70
2017-08-11T12:41:26.660Z,5.40
2017-08-11T12:43:54.306Z,5.90
2017-08-11T12:46:21.887Z,5.60
2017-08-11T12:48:49.503Z,5.63
2017-08-11T12:51:17.107Z,5.63
2017-08-11T12:53:44.785Z,4.97
2017-08-11T12:56:12.512Z,4.90
2017-08-11T12:58:40.152Z,4.63
2017-08-11T13:01:07.787Z,4.10
2017-08-11T13:03:35.448Z,4.43
2017-08-11T13:06:03.066Z,4.37
2017-08-11T13:08:30.663Z,4.23
2017-08-11T13:10:59.036Z,4.80
2017-08-11T13:13:27.455Z,4.77
2017-08-11T13:15:55.100Z,4.87
2017-08-11T13:18:22.788Z,4.67
2017-08-11T13:20:50.378Z,4.60
2017-08-11T13:23:18.012Z,4.90
2017-08-11T13:25:45.642Z,4.23
2017-08-11T13:28:14.224Z,4.70
2017-08-11T13:30:41.858Z,4.87
2017-08-11T13:33:10.364Z,4.47
2017-08-11T13:35:37.999Z,4.30
2017-08-11T13:38:06.361Z,4.50
2017-08-11T13:40:34.372Z,5.00
2017-08-11T13:43:01.968Z,4.70
2017-08-11T13:45:29.562Z,4.83
2017-08-11T13:47:57.185Z,4.87
2017-08-11T13:50:24.853Z,4.47
2017-08-11T13:52:52.511Z,5.37
2017-08-11T13:55:20.118Z,4.57
2017-08-11T13:57:48.457Z,4.03
2017-08-11T14:00:16.095Z,5.00
2017-08-11T14:02:43.701Z,4.97
2017-08-11T14:05:11.301Z,4.80
2017-08-11T14:07:38.967Z,4.50
2017-08-11T14:10:06.947Z,5.07
2017-08-11T14:12:34.555Z,5.77
2017-08-11T14:15:04.112Z,6.03
2017-08-11T14:17:31.933Z,5.03
2017-08-11T14:19:59.632Z,5.40
2017-08-11T14:22:28.190Z,5.53
2017-08-11T14:24:56.577Z,4.90
2017-08-11T14:27:24.998Z,4.57
2017-08-11T14:29:52.709Z,4.00
2017-08-11T14:32:20.347Z,4.50
2017-08-11T14:34:47.966Z,4.23
2017-08-11T14:37:15.735Z,3.73
2017-08-11T14:39:43.380Z,4.13
2017-08-11T14:42:11.995Z,3.87
2017-08-11T14:44:40.441Z,3.90
2017-08-11T14:47:09.183Z,4.47
2017-08-11T14:49:36.857Z,3.60
2017-08-11T14:52:04.448Z,3.30
2017-08-11T14:54:32.096Z,3.80
2017-08-11T14:57:00.501Z,3.50
2017-08-11T14:59:28.159Z,3.87
2017-08-11T15:01:55.769Z,4.27
2017-08-11T15:04:23.408Z,5.80
2017-08-11T15:06:51.176Z,5.70
2017-08-11T15:09:18.777Z,3.20
2017-08-11T15:11:46.359Z,4.00
2017-08-11T15:14:14.023Z,3.50
2017-08-11T15:16:41.636Z,3.30
2017-08-11T15:19:09.220Z,3.40
2017-08-11T15:21:36.923Z,5.63
2017-08-11T15:24:04.521Z,3.83
2017-08-11T15:26:32.247Z,5.03
2017-08-11T15:28:59.855Z,5.60
2017-08-11T15:31:27.486Z,6.30
2017-08-11T15:33:55.071Z,6.50
2017-08-11T15:36:22.713Z,4.30
2017-08-11T15:38:50.420Z,5.87
2017-08-11T15:41:18.850Z,5.60
2017-08-11T15:43:46.439Z,6.30
2017-08-11T15:46:14.088Z,5.40
2017-08-11T15:48:41.666Z,4.97
2017-08-11T15:51:09.281Z,5.20
2017-08-11T15:53:36.954Z,6.47
2017-08-11T15:56:04.639Z,5.83
2017-08-11T15:58:32.214Z,5.00
2017-08-11T16:00:59.839Z,6.40
2017-08-11T16:03:28.078Z,7.90
2017-08-11T16:05:55.708Z,9.30
2017-08-11T16:08:23.338Z,9.50
2017-08-11T16:10:51.968Z,8.10
2017-08-11T16:13:20.363Z,6.57
2017-08-11T16:15:48.957Z,5.70
2017-08-11T16:18:16.591Z,5.37
2017-08-11T16:20:44.206Z,5.90
2017-08-11T16:23:11.874Z,5.80
2017-08-11T16:25:39.542Z,4.70
2017-08-11T16:28:07.116Z,4.70
2017-08-11T16:30:35.023Z,5.40
2017-08-11T16:33:02.678Z,4.53
2017-08-11T16:35:31.032Z,5.43
2017-08-11T16:37:58.638Z,5.47
2017-08-11T16:40:26.465Z,5.00
2017-08-11T16:42:54.053Z,6.70
2017-08-11T16:45:21.679Z,5.63
2017-08-11T16:47:49.363Z,5.10
2017-08-11T16:50:17.789Z,4.83
2017-08-11T16:52:45.422Z,4.80
2017-08-11T16:55:13.015Z,5.47
2017-08-11T16:57:40.633Z,4.97
2017-08-11T17:00:09.004Z,5.30
2017-08-11T17:02:37.363Z,6.30
2017-08-11T17:05:04.959Z,6.00
2017-08-11T17:07:32.709Z,4.53
2017-08-11T17:10:01.162Z,4.53
2017-08-11T17:12:28.798Z,5.03
2017-08-11T17:14:56.571Z,5.97
2017-08-11T17:17:24.243Z,5.07
2017-08-11T17:19:51.936Z,5.27
2017-08-11T17:22:20.315Z,5.53
2017-08-11T17:24:48.846Z,6.40
2017-08-11T17:27:16.516Z,5.77
2017-08-11T17:29:44.184Z,6.00
2017-08-11T17:32:11.771Z,5.33
2017-08-11T17:34:39.453Z,5.97
2017-08-11T17:37:07.087Z,5.60
2017-08-11T17:39:34.661Z,5.10
2017-08-11T17:42:03.054Z,6.00
2017-08-11T17:44:30.678Z,5.10
2017-08-11T17:46:58.315Z,4.60
2017-08-11T17:49:25.898Z,5.33
2017-08-11T17:51:53.643Z,5.60
2017-08-11T17:54:21.219Z,6.00
2017-08-11T17:56:49.009Z,5.70
2017-08-11T17:59:17.486Z,6.50
2017-08-11T18:01:45.131Z,5.70
2017-08-11T18:04:12.717Z,6.60
2017-08-11T18:06:41.095Z,6.17
2017-08-11T18:09:09.460Z,5.90
2017-08-11T18:11:37.088Z,5.97
2017-08-11T18:14:04.729Z,7.73
2017-08-11T18:16:32.382Z,6.67
2017-08-11T18:19:00.052Z,6.80
2017-08-11T18:21:27.689Z,7.00
2017-08-11T18:23:56.031Z,6.83
2017-08-11T18:26:23.613Z,7.07
2017-08-11T18:28:51.214Z,6.83
2017-08-11T18:31:18.797Z,6.87
2017-08-11T18:33:46.417Z,8.63
2017-08-11T18:36:14.039Z,8.40
2017-08-11T18:38:41.628Z,8.93
2017-08-11T18:41:09.989Z,8.37
2017-08-11T18:43:37.621Z,8.97
2017-08-11T18:46:05.215Z,8.00
2017-08-11T18:48:32.797Z,7.97
2017-08-11T18:51:00.435Z,8.77
2017-08-11T18:53:28.056Z,8.93
2017-08-11T18:55:55.683Z,9.17
2017-08-11T18:58:23.378Z,9.43
2017-08-11T19:00:50.954Z,8.30
2017-08-11T19:03:18.536Z,9.23
2017-08-11T19:05:46.167Z,10.03
2017-08-11T19:08:13.871Z,11.77
2017-08-11T19:10:41.527Z,10.23
2017-08-11T19:13:09.140Z,9.80
2017-08-11T19:15:36.799Z,8.90
2017-08-11T19:18:04.372Z,9.87
2017-08-11T19:20:32.024Z,8.70
2017-08-11T19:22:59.688Z,9.30
2017-08-11T19:25:27.314Z,8.97
2017-08-11T19:27:54.924Z,9.00
2017-08-11T19:30:22.508Z,7.97
2017-08-11T19:32:50.137Z,8.27
2017-08-11T19:35:17.754Z,7.60
2017-08-11T19:37:45.417Z,6.97
2017-08-11T19:40:13.069Z,6.93
2017-08-11T19:42:41.506Z,6.40
2017-08-11T19:45:09.096Z,6.63
2017-08-11T19:47:36.673Z,5.80
2017-08-11T19:50:05.087Z,5.10
2017-08-11T19:52:32.766Z,5.67
2017-08-11T19:55:00.337Z,4.73
2017-08-11T19:57:28.022Z,4.90
2017-08-11T19:59:55.657Z,4.73
2017-08-11T20:02:23.244Z,4.73
2017-08-11T20:04:51.627Z,3.97
2017-08-11T20:07:19.231Z,3.90
2017-08-11T20:09:46.874Z,4.13
2017-08-11T20:12:14.527Z,3.87
2017-08-11T20:14:43.897Z,4.47
2017-08-11T20:17:11.590Z,3.70
2017-08-11T20:19:39.332Z,3.83
2017-08-11T20:22:07.829Z,3.40
2017-08-11T20:24:35.443Z,3.60
2017-08-11T20:27:03.185Z,4.30
2017-08-11T20:29:30.755Z,4.30
2017-08-11T20:31:58.423Z,3.13
2017-08-11T20:34:26.160Z,3.73
2017-08-11T20:36:53.815Z,4.30
2017-08-11T20:39:21.434Z,4.20
2017-08-11T20:41:49.887Z,4.50
2017-08-11T20:44:17.620Z,3.93
2017-08-11T20:46:45.235Z,3.97
2017-08-11T20:49:12.858Z,4.10
2017-08-11T20:51:40.458Z,3.80
2017-08-11T20:54:08.133Z,3.80
2017-08-11T20:56:35.753Z,4.30
2017-08-11T20:59:03.419Z,4.00
2017-08-11T21:01:31.029Z,4.60
2017-08-11T21:03:58.663Z,5.53
2017-08-11T21:06:26.266Z,4.67
2017-08-11T21:08:53.851Z,4.57
2017-08-11T21:11:21.467Z,5.77
2017-08-11T21:13:49.053Z,4.80
2017-08-11T21:16:16.707Z,4.90
2017-08-11T21:18:44.328Z,4.33
2017-08-11T21:21:12.011Z,4.47
2017-08-11T21:23:39.640Z,3.97
2017-08-11T21:26:08.163Z,5.30
2017-08-11T21:28:35.772Z,5.00
2017-08-11T21:31:03.365Z,4.57
2017-08-11T21:33:30.992Z,5.50
2017-08-11T21:35:58.649Z,5.53
2017-08-11T21:38:26.226Z,5.30
2017-08-11T21:40:53.930Z,4.47
2017-08-11T21:43:22.360Z,4.47
2017-08-11T21:45:50.925Z,4.67
2017-08-11T21:48:18.603Z,4.80
2017-08-11T21:50:46.261Z,4.70
2017-08-11T21:53:13.842Z,5.70
2017-08-11T21:55:41.474Z,3.87
2017-08-11T21:58:09.199Z,4.60
2017-08-11T22:00:36.837Z,5.03
2017-08-11T22:03:04.501Z,5.50
2017-08-11T22:05:32.132Z,5.83
2017-08-11T22:07:59.703Z,5.80
2017-08-11T22:10:27.321Z,5.20
2017-08-11T22:12:55.957Z,5.30
2017-08-11T22:15:23.574Z,5.57
2017-08-11T22:17:51.285Z,5.27
2017-08-11T22:20:18.884Z,5.10
2017-08-11T22:22:47.244Z,5.17
2017-08-11T22:25:14.954Z,5.00
2017-08-11T22:27:42.533Z,4.20
2017-08-11T22:30:10.109Z,4.67
2017-08-11T22:32:37.805Z,4.90
2017-08-11T22:35:06.231Z,5.00
2017-08-11T22:37:33.890Z,5.37
2017-08-11T22:40:01.494Z,5.00
2017-08-11T22:42:29.155Z,5.57
2017-08-11T22:44:56.743Z,4.70
2017-08-11T22:47:24.349Z,5.63
2017-08-11T22:49:52.100Z,5.20
2017-08-11T22:52:19.775Z,4.83
2017-08-11T22:54:47.390Z,5.50
2017-08-11T22:57:15.049Z,5.10
2017-08-11T22:59:42.688Z,4.80
2017-08-11T23:02:11.078Z,5.80
2017-08-11T23:04:38.660Z,5.87
2017-08-11T23:07:06.418Z,4.70
2017-08-11T23:09:34.025Z,5.00
2017-08-11T23:12:01.619Z,5.10
2017-08-11T23:14:29.241Z,5.07
2017-08-11T23:16:56.862Z,4.40
2017-08-11T23:19:24.433Z,4.83
2017-08-11T23:21:52.043Z,4.60
2017-08-11T23:24:19.712Z,4.50
2017-08-11T23:26:48.072Z,4.27
2017-08-11T23:29:15.654Z,4.33
2017-08-11T23:31:43.300Z,4.80
2017-08-11T23:34:10.891Z,4.20
2017-08-11T23:36:39.312Z,4.30
2017-08-11T23:39:06.944Z,4.90
2017-08-11T23:41:34.556Z,4.77
2017-08-11T23:44:02.166Z,4.67
2017-08-11T23:46:30.127Z,5.17
2017-08-11T23:48:57.718Z,4.70
2017-08-11T23:51:25.298Z,5.07
2017-08-11T23:53:52.904Z,4.80
2017-08-11T23:56:21.315Z,5.13
2017-08-11T23:58:48.953Z,4.70
